Terminal Aerodrome Forecast
Issued by NWS

Home | Current Version | Previous Version | Graphics & Text | Print | Product List | Glossary On
Versions: 1 2 3 4 5 6 7 8 9 10 11 12 13 14 15 16 17
000
FTUS45 KGGW 302326
TAFGDV
TAF
KGDV 302326Z 0100/0124 29006KT 6SM -SHSN OVC035
     FM010900 23004KT 1SM BR OVC025
     FM011400 21004KT P6SM OVC040=

USA.gov is the U.S. government's official web portal to all federal, state and local government web resources and services.